Time;durP1;ratioP1;P1;durP2;ratioP2;P2;SDS_P1;SDS_P2;PMS_P1;PMS_P2;Temp;Humidity;BMP_temperature;BMP_pressure;BME280_temperature;BME280_humidity;BME280_pressure;Samples;Min_cycle;Max_cycle;Signal;HPM_P1;HPM_P2
2022/05/04 00:01:29;;;;;;;;;;;26.70;37.30;;;;;;5072155;28;971;-45
2022/05/04 00:03:56;;;;;;;;;;;26.70;37.30;;;;;;5073047;28;968;-45
2022/05/04 00:06:23;;;;;;;;;;;26.70;37.30;;;;;;5073927;28;973;-45
2022/05/04 00:08:50;;;;;;;;;;;26.70;37.20;;;;;;5072878;28;962;-45
2022/05/04 00:11:17;;;;;;;;;;;26.70;37.30;;;;;;5071777;28;1025;-44
2022/05/04 00:13:43;;;;;;;;;;;26.80;37.30;;;;;;5074427;28;1042;-45
2022/05/04 00:16:12;;;;;;;;;;;26.70;37.20;;;;;;5073197;28;1009;-46
2022/05/04 00:18:38;;;;;;;;;;;26.70;37.30;;;;;;5072767;28;1909;-45
2022/05/04 00:21:07;;;;;;;;;;;26.70;37.20;;;;;;5072442;28;1040;-45
2022/05/04 00:23:34;;;;;;;;;;;26.70;37.20;;;;;;5073469;28;1027;-45
2022/05/04 00:26:00;;;;;;;;;;;26.70;37.30;;;;;;5074217;28;1134;-46
2022/05/04 00:28:27;;;;;;;;;;;26.70;37.20;;;;;;5073072;28;923;-45
2022/05/04 00:30:54;;;;;;;;;;;26.80;37.30;;;;;;5073325;28;969;-46
2022/05/04 00:33:22;;;;;;;;;;;26.70;37.20;;;;;;5073494;28;952;-45
2022/05/04 00:35:48;;;;;;;;;;;26.70;37.30;;;;;;5074742;28;1042;-45
2022/05/04 00:38:15;;;;;;;;;;;26.70;37.20;;;;;;5073383;28;1906;-44
2022/05/04 00:40:42;;;;;;;;;;;26.70;37.30;;;;;;5073272;28;1186;-46
2022/05/04 00:43:19;;;;;;;;;;;26.70;37.30;;;;;;5073670;28;921;-45
2022/05/04 00:45:46;;;;;;;;;;;26.70;37.30;;;;;;5072838;28;1008;-45
2022/05/04 00:48:13;;;;;;;;;;;26.70;37.20;;;;;;5073530;28;991;-45
2022/05/04 00:50:42;;;;;;;;;;;26.70;37.30;;;;;;5073130;28;874;-45
2022/05/04 00:53:08;;;;;;;;;;;26.70;37.30;;;;;;5073400;28;1024;-44
2022/05/04 00:55:35;;;;;;;;;;;26.70;38.50;;;;;;5072103;28;921;-45
2022/05/04 01:00:48;;;;;;;;;;;26.70;37.40;;;;;;5073729;28;667;-45
2022/05/04 01:03:15;;;;;;;;;;;26.60;37.40;;;;;;5076189;28;1139;-45
2022/05/04 01:05:44;;;;;;;;;;;26.60;37.40;;;;;;5076342;28;997;-46
2022/05/04 01:08:12;;;;;;;;;;;26.60;37.50;;;;;;5076233;28;1020;-45
2022/05/04 01:10:38;;;;;;;;;;;26.60;37.50;;;;;;5076179;28;957;-45
2022/05/04 01:13:05;;;;;;;;;;;26.60;37.50;;;;;;5076043;28;999;-45
2022/05/04 01:15:32;;;;;;;;;;;26.60;37.50;;;;;;5076462;28;997;-45
2022/05/04 01:17:58;;;;;;;;;;;26.60;37.50;;;;;;5076102;28;997;-45
2022/05/04 01:20:25;;;;;;;;;;;26.60;37.50;;;;;;5076265;28;1913;-46
2022/05/04 01:22:53;;;;;;;;;;;26.60;37.60;;;;;;5076349;28;991;-45
2022/05/04 01:25:20;;;;;;;;;;;26.50;37.50;;;;;;5077158;28;1011;-45
2022/05/04 01:27:47;;;;;;;;;;;26.50;37.60;;;;;;5077381;28;928;-45
2022/05/04 01:30:14;;;;;;;;;;;26.50;37.70;;;;;;5076951;28;1008;-45
2022/05/04 01:32:41;;;;;;;;;;;26.50;37.60;;;;;;5076061;28;997;-46
2022/05/04 01:35:08;;;;;;;;;;;26.50;37.70;;;;;;5074868;28;957;-45
2022/05/04 01:37:34;;;;;;;;;;;26.50;37.60;;;;;;5075824;28;1001;-45
2022/05/04 01:40:02;;;;;;;;;;;26.50;37.80;;;;;;5076814;28;1986;-45
2022/05/04 01:42:29;;;;;;;;;;;26.50;37.80;;;;;;5075941;28;1187;-47
2022/05/04 01:44:56;;;;;;;;;;;26.50;37.70;;;;;;5076487;28;866;-45
2022/05/04 01:47:23;;;;;;;;;;;26.40;37.70;;;;;;5077272;28;1002;-45
2022/05/04 01:49:49;;;;;;;;;;;26.40;37.80;;;;;;5076877;28;937;-45
2022/05/04 01:52:16;;;;;;;;;;;26.40;37.80;;;;;;5077117;28;998;-45
2022/05/04 01:54:43;;;;;;;;;;;26.40;37.80;;;;;;5076410;28;992;-46
2022/05/04 01:57:11;;;;;;;;;;;26.40;37.80;;;;;;5075454;28;888;-45
2022/05/04 01:59:38;;;;;;;;;;;26.40;37.70;;;;;;5074776;28;1910;-47
2022/05/04 02:02:06;;;;;;;;;;;26.40;37.80;;;;;;5075720;28;996;-46
2022/05/04 02:04:32;;;;;;;;;;;26.40;37.80;;;;;;5075377;28;1868;-47
2022/05/04 02:06:59;;;;;;;;;;;26.40;37.90;;;;;;5074635;28;1032;-46
2022/05/04 02:09:27;;;;;;;;;;;26.40;37.90;;;;;;5075869;28;1004;-46
2022/05/04 02:11:53;;;;;;;;;;;26.40;37.90;;;;;;5075373;28;1033;-47
2022/05/04 02:14:21;;;;;;;;;;;26.40;37.90;;;;;;5074454;28;861;-45
2022/05/04 02:16:48;;;;;;;;;;;26.40;37.90;;;;;;5075540;28;1390;-45
2022/05/04 02:19:15;;;;;;;;;;;26.40;38.10;;;;;;5074570;28;1988;-46
2022/05/04 02:21:42;;;;;;;;;;;26.40;37.90;;;;;;5075441;28;975;-45
2022/05/04 02:24:08;;;;;;;;;;;26.40;37.80;;;;;;5074612;28;877;-45
2022/05/04 02:26:35;;;;;;;;;;;26.30;37.80;;;;;;5075483;28;999;-45
2022/05/04 02:29:02;;;;;;;;;;;26.30;37.80;;;;;;5075108;28;960;-45
2022/05/04 02:31:30;;;;;;;;;;;26.40;37.90;;;;;;5074160;28;993;-45
2022/05/04 02:33:57;;;;;;;;;;;26.40;37.90;;;;;;5074064;28;979;-45
2022/05/04 02:39:07;;;;;;;;;;;26.40;37.70;;;;;;5075696;28;1976;-45
2022/05/04 02:41:34;;;;;;;;;;;26.40;37.80;;;;;;5075098;28;1427;-45
2022/05/04 02:44:02;;;;;;;;;;;26.30;37.80;;;;;;5074785;28;888;-44
2022/05/04 02:46:31;;;;;;;;;;;26.30;37.90;;;;;;5075843;28;1237;-45
2022/05/04 02:48:57;;;;;;;;;;;26.30;37.90;;;;;;5075384;28;988;-45
2022/05/04 02:51:24;;;;;;;;;;;26.30;37.90;;;;;;5075837;28;1017;-45
2022/05/04 02:53:51;;;;;;;;;;;26.30;37.90;;;;;;5075216;28;960;-44
2022/05/04 02:59:30;;;;;;;;;;;26.30;37.90;;;;;;5073288;28;1942;-45
2022/05/04 03:04:42;;;;;;;;;;;26.30;37.90;;;;;;5074454;28;887;-45
2022/05/04 03:07:09;;;;;;;;;;;26.20;37.90;;;;;;5074487;28;885;-45
2022/05/04 03:09:36;;;;;;;;;;;26.30;38.00;;;;;;5074314;28;947;-45
2022/05/04 03:12:03;;;;;;;;;;;26.20;38.00;;;;;;5073065;28;969;-45
2022/05/04 03:14:30;;;;;;;;;;;26.30;38.00;;;;;;5073833;28;932;-44
2022/05/04 03:16:58;;;;;;;;;;;26.20;39.10;;;;;;5072666;28;925;-44
2022/05/04 03:19:25;;;;;;;;;;;26.30;37.90;;;;;;5073754;28;1910;-44
2022/05/04 03:21:52;;;;;;;;;;;26.20;37.90;;;;;;5073772;28;1000;-44
2022/05/04 03:24:19;;;;;;;;;;;26.30;38.00;;;;;;5072928;28;1002;-44
2022/05/04 03:26:45;;;;;;;;;;;26.30;38.00;;;;;;5073839;28;1020;-44
2022/05/04 03:29:13;;;;;;;;;;;26.30;37.90;;;;;;5074113;28;961;-44
2022/05/04 03:31:40;;;;;;;;;;;26.30;38.00;;;;;;5074054;28;929;-44
2022/05/04 03:34:08;;;;;;;;;;;26.20;37.90;;;;;;5072226;28;937;-44
2022/05/04 03:36:37;;;;;;;;;;;26.30;38.00;;;;;;5073736;28;977;-46
2022/05/04 03:39:04;;;;;;;;;;;26.30;38.00;;;;;;5072794;28;1987;-46
2022/05/04 03:41:31;;;;;;;;;;;26.30;38.00;;;;;;5073181;28;1107;-45
2022/05/04 03:43:57;;;;;;;;;;;26.30;38.00;;;;;;5073696;28;888;-45
2022/05/04 03:46:25;;;;;;;;;;;26.30;38.00;;;;;;5073537;28;1003;-45
2022/05/04 03:48:52;;;;;;;;;;;26.20;38.00;;;;;;5072970;28;1109;-45
2022/05/04 03:51:21;;;;;;;;;;;26.20;38.00;;;;;;5071865;28;1003;-45
2022/05/04 03:53:48;;;;;;;;;;;26.20;38.00;;;;;;5071909;28;996;-46
2022/05/04 03:56:15;;;;;;;;;;;26.20;37.90;;;;;;5071857;28;1835;-45
2022/05/04 03:58:42;;;;;;;;;;;26.20;37.90;;;;;;5071554;28;1816;-45
2022/05/04 04:01:09;;;;;;;;;;;26.20;38.00;;;;;;5071667;28;1902;-45
2022/05/04 04:03:36;;;;;;;;;;;26.20;38.00;;;;;;5066544;28;962;-45
2022/05/04 04:06:02;;;;;;;;;;;26.20;38.00;;;;;;5066949;28;937;-45
2022/05/04 04:08:30;;;;;;;;;;;26.20;38.00;;;;;;5070165;28;945;-45
2022/05/04 04:10:58;;;;;;;;;;;26.20;38.00;;;;;;5071635;28;876;-45
2022/05/04 04:13:25;;;;;;;;;;;26.20;38.00;;;;;;5072177;28;995;-45
2022/05/04 04:15:52;;;;;;;;;;;26.20;38.10;;;;;;5072154;28;931;-45
2022/05/04 04:18:19;;;;;;;;;;;26.10;38.00;;;;;;5072900;28;1004;-45
2022/05/04 04:23:32;;;;;;;;;;;26.20;38.00;;;;;;5073132;28;884;-45
2022/05/04 04:25:59;;;;;;;;;;;26.20;38.10;;;;;;5071280;28;1786;-45
2022/05/04 04:28:26;;;;;;;;;;;26.20;38.00;;;;;;5069985;28;1020;-44
2022/05/04 04:30:53;;;;;;;;;;;26.20;37.90;;;;;;5070990;28;941;-45
2022/05/04 04:33:22;;;;;;;;;;;26.20;38.00;;;;;;5070876;28;973;-45
2022/05/04 04:35:51;;;;;;;;;;;26.20;38.00;;;;;;5073454;28;1021;-45
2022/05/04 04:38:18;;;;;;;;;;;26.20;38.10;;;;;;5075297;28;1018;-45
2022/05/04 04:40:46;;;;;;;;;;;26.20;38.00;;;;;;5075298;28;1898;-44
2022/05/04 04:43:14;;;;;;;;;;;26.20;38.00;;;;;;5074847;28;889;-45
2022/05/04 04:45:41;;;;;;;;;;;26.20;38.00;;;;;;5075509;28;1058;-45
2022/05/04 04:48:08;;;;;;;;;;;26.10;38.00;;;;;;5075778;28;979;-45
2022/05/04 04:50:35;;;;;;;;;;;26.10;38.00;;;;;;5073726;28;1123;-45
2022/05/04 04:53:02;;;;;;;;;;;26.10;38.00;;;;;;5075053;28;1062;-45
2022/05/04 04:55:29;;;;;;;;;;;26.10;38.10;;;;;;5074496;28;1053;-45
2022/05/04 04:57:57;;;;;;;;;;;26.10;38.20;;;;;;5071311;28;881;-46
2022/05/04 05:00:24;;;;;;;;;;;26.10;38.10;;;;;;5070502;28;1983;-44
2022/05/04 05:02:51;;;;;;;;;;;26.10;38.20;;;;;;5071110;28;1003;-45
2022/05/04 05:05:18;;;;;;;;;;;26.10;38.20;;;;;;5069163;28;968;-44
2022/05/04 05:07:44;;;;;;;;;;;26.10;38.20;;;;;;5069263;28;877;-46
2022/05/04 05:10:11;;;;;;;;;;;26.10;38.20;;;;;;5069603;28;992;-45
2022/05/04 05:12:38;;;;;;;;;;;26.10;38.20;;;;;;5070623;28;1011;-45
2022/05/04 05:17:51;;;;;;;;;;;26.10;38.20;;;;;;5066589;28;893;-45
2022/05/04 05:20:18;;;;;;;;;;;26.10;38.20;;;;;;5064315;28;1906;-45
2022/05/04 05:22:45;;;;;;;;;;;26.10;38.10;;;;;;5064831;28;1028;-45
2022/05/04 05:25:12;;;;;;;;;;;26.20;38.10;;;;;;5067180;28;978;-45
2022/05/04 05:27:38;;;;;;;;;;;26.10;38.10;;;;;;5065290;28;889;-45
2022/05/04 05:30:07;;;;;;;;;;;26.10;38.00;;;;;;5064824;28;1044;-45
2022/05/04 05:32:34;;;;;;;;;;;26.20;38.10;;;;;;5066337;28;956;-44
2022/05/04 05:35:02;;;;;;;;;;;26.20;38.00;;;;;;5064307;28;988;-45
2022/05/04 05:37:29;;;;;;;;;;;26.20;38.00;;;;;;5068478;28;968;-44
2022/05/04 05:39:56;;;;;;;;;;;26.20;37.90;;;;;;5068445;28;1906;-44
2022/05/04 05:42:22;;;;;;;;;;;26.20;38.00;;;;;;5069272;28;1029;-44
2022/05/04 05:44:50;;;;;;;;;;;26.10;37.90;;;;;;5067082;28;1771;-44
2022/05/04 05:47:19;;;;;;;;;;;26.10;37.90;;;;;;5066485;28;865;-44
2022/05/04 05:49:45;;;;;;;;;;;26.20;37.80;;;;;;5071683;28;972;-45
2022/05/04 05:52:12;;;;;;;;;;;26.30;37.80;;;;;;5071971;28;873;-45
2022/05/04 05:54:39;;;;;;;;;;;26.30;38.00;;;;;;5070876;28;1097;-46
2022/05/04 05:57:06;;;;;;;;;;;26.30;38.00;;;;;;5068217;28;977;-45
2022/05/04 05:59:33;;;;;;;;;;;26.20;38.10;;;;;;5068229;28;1906;-45
2022/05/04 06:02:00;;;;;;;;;;;26.20;38.10;;;;;;5068991;28;945;-45
2022/05/04 06:04:28;;;;;;;;;;;26.20;38.20;;;;;;5068391;28;1816;-45
2022/05/04 06:06:55;;;;;;;;;;;26.30;38.20;;;;;;5068843;28;957;-46
2022/05/04 06:09:22;;;;;;;;;;;26.30;38.20;;;;;;5068368;28;979;-45
2022/05/04 06:11:51;;;;;;;;;;;26.30;38.30;;;;;;5069243;28;913;-46
2022/05/04 06:14:18;;;;;;;;;;;26.30;38.20;;;;;;5069877;28;1000;-45
2022/05/04 06:16:45;;;;;;;;;;;26.30;38.30;;;;;;5068192;28;917;-46
2022/05/04 06:19:13;;;;;;;;;;;26.20;38.40;;;;;;5067332;28;930;-45
2022/05/04 06:21:41;;;;;;;;;;;26.30;38.40;;;;;;5068152;28;1902;-45
2022/05/04 06:24:08;;;;;;;;;;;26.30;38.40;;;;;;5068345;28;932;-45
2022/05/04 06:26:34;;;;;;;;;;;26.30;38.50;;;;;;5069250;28;1021;-43
2022/05/04 06:29:01;;;;;;;;;;;26.30;38.60;;;;;;5069535;28;993;-43
2022/05/04 06:34:12;;;;;;;;;;;26.20;38.70;;;;;;5067450;28;886;-43
2022/05/04 06:36:41;;;;;;;;;;;26.30;38.70;;;;;;5068780;28;889;-41
2022/05/04 06:39:08;;;;;;;;;;;26.20;38.60;;;;;;5069188;28;1032;-40
2022/05/04 06:41:36;;;;;;;;;;;26.20;38.60;;;;;;5068877;28;1913;-43
2022/05/04 06:44:02;;;;;;;;;;;26.30;38.70;;;;;;5068326;28;920;-42
2022/05/04 06:46:29;;;;;;;;;;;26.20;38.60;;;;;;5067699;28;1004;-41
2022/05/04 06:48:56;;;;;;;;;;;26.30;38.70;;;;;;5069456;28;864;-42
2022/05/04 06:51:23;;;;;;;;;;;26.20;38.70;;;;;;5067424;28;886;-42
2022/05/04 06:53:51;;;;;;;;;;;26.20;38.60;;;;;;5067590;28;988;-43
2022/05/04 06:56:18;;;;;;;;;;;26.20;38.60;;;;;;5067757;28;878;-43
2022/05/04 06:58:45;;;;;;;;;;;26.20;38.70;;;;;;5065201;28;855;-41
2022/05/04 07:01:12;;;;;;;;;;;26.30;38.70;;;;;;5067617;28;1906;-43
2022/05/04 07:03:39;;;;;;;;;;;26.20;38.60;;;;;;5067434;28;1088;-43
2022/05/04 07:06:06;;;;;;;;;;;26.20;38.70;;;;;;5065888;28;1025;-42
2022/05/04 07:08:33;;;;;;;;;;;26.30;38.80;;;;;;5065847;28;1039;-40
2022/05/04 07:11:01;;;;;;;;;;;26.20;38.70;;;;;;5066618;28;897;-43
2022/05/04 07:13:28;;;;;;;;;;;26.30;38.80;;;;;;5067106;28;1569;-42
2022/05/04 07:15:55;;;;;;;;;;;26.20;38.70;;;;;;5066204;28;906;-42
2022/05/04 07:18:22;;;;;;;;;;;26.20;38.70;;;;;;5066810;28;996;-41
2022/05/04 07:20:49;;;;;;;;;;;26.20;38.70;;;;;;5068290;28;1886;-43
2022/05/04 07:23:15;;;;;;;;;;;26.20;38.70;;;;;;5067388;28;974;-43
2022/05/04 07:25:42;;;;;;;;;;;26.30;38.80;;;;;;5064928;28;993;-42
2022/05/04 07:28:11;;;;;;;;;;;26.20;38.70;;;;;;5063760;28;1533;-40
2022/05/04 07:30:37;;;;;;;;;;;26.30;38.80;;;;;;5063316;28;873;-42
2022/05/04 07:33:04;;;;;;;;;;;26.20;38.70;;;;;;5066510;28;876;-42
2022/05/04 07:35:31;;;;;;;;;;;26.30;38.80;;;;;;5067144;28;941;-42
2022/05/04 07:37:58;;;;;;;;;;;26.20;38.80;;;;;;5067607;28;1333;-41
2022/05/04 07:43:09;;;;;;;;;;;26.20;38.70;;;;;;5062053;28;873;-41
2022/05/04 07:45:37;;;;;;;;;;;26.30;38.80;;;;;;5066533;28;981;-43
2022/05/04 07:48:04;;;;;;;;;;;26.20;38.80;;;;;;5065655;28;1023;-41
2022/05/04 07:50:30;;;;;;;;;;;26.30;38.70;;;;;;5067076;28;998;-42
2022/05/04 07:52:57;;;;;;;;;;;26.20;38.70;;;;;;5065718;28;944;-43
2022/05/04 07:55:24;;;;;;;;;;;26.30;38.80;;;;;;5067426;28;1023;-41
2022/05/04 07:57:51;;;;;;;;;;;26.30;38.80;;;;;;5066795;28;909;-39
2022/05/04 08:05:47;;;;;;;;;;;26.30;38.70;;;;;;5065762;28;885;-40
2022/05/04 08:08:13;;;;;;;;;;;26.30;38.60;;;;;;5065488;28;898;-42
2022/05/04 08:10:41;;;;;;;;;;;26.30;38.70;;;;;;5067461;28;1015;-43
2022/05/04 08:13:08;;;;;;;;;;;26.30;38.70;;;;;;5074025;28;964;-42
2022/05/04 08:15:37;;;;;;;;;;;26.30;38.70;;;;;;5071190;28;1144;-42
2022/05/04 08:18:05;;;;;;;;;;;26.30;38.70;;;;;;5071992;28;913;-43
2022/05/04 08:20:32;;;;;;;;;;;26.30;38.70;;;;;;5071528;28;1906;-43
2022/05/04 08:22:59;;;;;;;;;;;26.30;38.70;;;;;;5072242;28;1888;-41
2022/05/04 08:25:26;;;;;;;;;;;26.30;38.70;;;;;;5071551;28;1087;-41
2022/05/04 08:27:53;;;;;;;;;;;26.30;38.70;;;;;;5072321;28;937;-41
2022/05/04 08:30:20;;;;;;;;;;;26.30;38.70;;;;;;5073259;28;1284;-42
2022/05/04 08:32:48;;;;;;;;;;;26.30;38.80;;;;;;5072115;28;937;-42
2022/05/04 08:35:16;;;;;;;;;;;26.30;38.70;;;;;;5073887;28;1772;-41
2022/05/04 08:37:43;;;;;;;;;;;26.30;38.70;;;;;;5072597;28;948;-40
2022/05/04 08:40:10;;;;;;;;;;;26.40;38.80;;;;;;5072008;28;997;-41
2022/05/04 08:42:39;;;;;;;;;;;26.30;38.70;;;;;;5072397;28;1989;-42
2022/05/04 08:45:09;;;;;;;;;;;26.40;38.70;;;;;;5070692;28;994;-43
2022/05/04 08:47:37;;;;;;;;;;;26.30;38.70;;;;;;5073878;28;945;-42
2022/05/04 08:50:08;;;;;;;;;;;26.30;38.70;;;;;;5070922;28;956;-43
2022/05/04 08:52:37;;;;;;;;;;;26.30;38.70;;;;;;5071649;28;933;-42
2022/05/04 08:55:05;;;;;;;;;;;26.30;38.70;;;;;;5069463;28;996;-42
2022/05/04 08:57:32;;;;;;;;;;;26.30;38.70;;;;;;5069797;28;956;-43
2022/05/04 08:59:58;;;;;;;;;;;26.30;38.70;;;;;;5071357;28;865;-43
2022/05/04 09:02:25;;;;;;;;;;;26.30;38.70;;;;;;5071239;28;1974;-41
2022/05/04 09:04:52;;;;;;;;;;;26.30;38.70;;;;;;5071513;28;1020;-41
2022/05/04 09:07:23;;;;;;;;;;;26.30;38.70;;;;;;5074170;28;978;-39
2022/05/04 09:09:51;;;;;;;;;;;26.30;38.60;;;;;;5074907;28;980;-41
2022/05/04 09:12:18;;;;;;;;;;;26.30;38.60;;;;;;5076412;28;1025;-42
2022/05/04 09:14:45;;;;;;;;;;;26.30;38.60;;;;;;5072408;28;1124;-43
2022/05/04 09:17:12;;;;;;;;;;;26.30;38.70;;;;;;5071595;28;997;-41
2022/05/04 09:19:39;;;;;;;;;;;26.30;38.70;;;;;;5072456;28;905;-44
2022/05/04 09:22:16;;;;;;;;;;;26.30;38.70;;;;;;5069144;28;1898;-42
2022/05/04 09:24:44;;;;;;;;;;;26.30;38.70;;;;;;5070477;28;1038;-39
2022/05/04 09:27:12;;;;;;;;;;;26.30;38.70;;;;;;5069272;28;949;-42
2022/05/04 09:29:42;;;;;;;;;;;26.30;38.70;;;;;;5069242;28;925;-41
2022/05/04 09:32:15;;;;;;;;;;;26.40;38.70;;;;;;5068846;28;962;-41
2022/05/04 09:34:42;;;;;;;;;;;26.30;38.70;;;;;;5069596;28;991;-42
2022/05/04 09:45:52;;;;;;;;;;;26.30;39.90;;;;;;5020091;28;1194;-42
2022/05/04 09:48:29;;;;;;;;;;;26.30;38.70;;;;;;5067364;28;916;-43
2022/05/04 09:50:57;;;;;;;;;;;26.30;38.70;;;;;;5068109;28;961;-42
2022/05/04 09:53:26;;;;;;;;;;;26.30;38.70;;;;;;5068961;28;862;-43
2022/05/04 09:55:53;;;;;;;;;;;26.30;38.70;;;;;;5067518;28;1267;-43
2022/05/04 09:58:23;;;;;;;;;;;26.30;38.70;;;;;;5067108;28;1338;-43
2022/05/04 10:00:51;;;;;;;;;;;26.30;38.70;;;;;;5067322;28;1902;-43
2022/05/04 10:03:19;;;;;;;;;;;26.30;38.70;;;;;;5064929;28;867;-43
2022/05/04 10:05:46;;;;;;;;;;;26.30;38.60;;;;;;5065002;28;1000;-43
2022/05/04 10:08:13;;;;;;;;;;;26.30;38.70;;;;;;5065465;28;952;-43
2022/05/04 10:10:40;;;;;;;;;;;26.30;38.70;;;;;;5066777;28;1000;-43
2022/05/04 10:13:07;;;;;;;;;;;26.30;38.70;;;;;;5068013;28;984;-43
2022/05/04 10:15:36;;;;;;;;;;;26.40;38.80;;;;;;5065509;28;1008;-42
2022/05/04 10:18:07;;;;;;;;;;;26.40;38.70;;;;;;5066210;28;993;-44
2022/05/04 10:20:37;;;;;;;;;;;26.40;38.60;;;;;;5068493;28;870;-43
2022/05/04 10:23:10;;;;;;;;;;;26.40;38.60;;;;;;5066798;28;1910;-43
2022/05/04 10:25:37;;;;;;;;;;;26.40;38.60;;;;;;5065965;28;1013;-43
2022/05/04 10:28:05;;;;;;;;;;;26.40;38.60;;;;;;5065067;28;894;-43
2022/05/04 10:30:31;;;;;;;;;;;26.40;38.60;;;;;;5066462;28;995;-43
2022/05/04 10:32:59;;;;;;;;;;;26.40;38.60;;;;;;5065394;28;1426;-43
2022/05/04 10:35:33;;;;;;;;;;;26.30;38.60;;;;;;5065824;28;1064;-43
2022/05/04 10:38:07;;;;;;;;;;;26.30;38.60;;;;;;5066984;28;928;-43
2022/05/04 10:40:35;;;;;;;;;;;26.40;38.70;;;;;;5067051;28;1008;-42
2022/05/04 10:43:03;;;;;;;;;;;26.40;38.70;;;;;;5065962;28;1909;-43
2022/05/04 10:45:30;;;;;;;;;;;26.40;38.60;;;;;;5065289;28;889;-42
2022/05/04 10:48:13;;;;;;;;;;;26.40;38.70;;;;;;5065681;28;837;-43
2022/05/04 10:50:49;;;;;;;;;;;26.40;38.60;;;;;;5064820;28;991;-41
2022/05/04 10:53:20;;;;;;;;;;;26.40;38.60;;;;;;5065149;28;945;-43
2022/05/04 10:55:54;;;;;;;;;;;26.40;38.70;;;;;;5061950;28;953;-43
2022/05/04 10:58:31;;;;;;;;;;;26.40;38.70;;;;;;5056809;28;1003;-43
2022/05/04 11:01:04;;;;;;;;;;;26.40;38.70;;;;;;5058551;28;1195;-43
2022/05/04 11:03:36;;;;;;;;;;;26.40;38.80;;;;;;5063786;28;1207;-43
2022/05/04 11:06:05;;;;;;;;;;;26.40;38.70;;;;;;5065065;28;956;-40
2022/05/04 11:08:35;;;;;;;;;;;26.40;38.70;;;;;;5062885;28;869;-41
2022/05/04 11:11:02;;;;;;;;;;;26.40;38.60;;;;;;5062671;28;919;-42
2022/05/04 11:13:30;;;;;;;;;;;26.40;38.60;;;;;;5063423;28;985;-42
2022/05/04 11:15:59;;;;;;;;;;;26.40;38.60;;;;;;5066854;28;1003;-40
2022/05/04 11:18:27;;;;;;;;;;;26.40;38.60;;;;;;5064577;28;912;-41
2022/05/04 11:20:55;;;;;;;;;;;26.40;38.60;;;;;;5063026;28;1034;-42
2022/05/04 11:23:25;;;;;;;;;;;26.40;38.60;;;;;;5064547;28;1909;-42
2022/05/04 11:25:52;;;;;;;;;;;26.40;38.60;;;;;;5064761;28;976;-42
2022/05/04 11:28:20;;;;;;;;;;;26.40;38.60;;;;;;5065560;28;1028;-43
2022/05/04 11:30:47;;;;;;;;;;;26.40;38.60;;;;;;5063489;28;1020;-43
2022/05/04 11:33:14;;;;;;;;;;;26.40;38.50;;;;;;5064579;28;1466;-43
2022/05/04 11:35:42;;;;;;;;;;;26.50;38.60;;;;;;5066262;28;991;-42
2022/05/04 11:38:16;;;;;;;;;;;26.50;38.50;;;;;;5064506;28;870;-43
2022/05/04 11:40:44;;;;;;;;;;;26.50;38.50;;;;;;5064431;28;1173;-42
2022/05/04 11:43:11;;;;;;;;;;;26.50;38.50;;;;;;5066276;28;1993;-43
2022/05/04 11:45:40;;;;;;;;;;;26.50;38.60;;;;;;5063267;28;888;-43
2022/05/04 11:48:07;;;;;;;;;;;26.50;38.50;;;;;;5064101;28;878;-42
2022/05/04 11:50:34;;;;;;;;;;;26.50;38.50;;;;;;5064628;28;996;-43
2022/05/04 11:53:01;;;;;;;;;;;26.50;38.40;;;;;;5064208;28;976;-43
2022/05/04 11:55:29;;;;;;;;;;;26.50;38.50;;;;;;5064970;28;1004;-43
2022/05/04 11:57:59;;;;;;;;;;;26.60;38.50;;;;;;5062873;28;960;-43
2022/05/04 12:00:27;;;;;;;;;;;26.60;38.50;;;;;;5063603;28;992;-41
2022/05/04 12:02:55;;;;;;;;;;;26.60;38.60;;;;;;5064197;28;2033;-43
2022/05/04 12:05:22;;;;;;;;;;;26.60;38.60;;;;;;5067623;28;1618;-42
2022/05/04 12:07:49;;;;;;;;;;;26.60;38.60;;;;;;5066707;28;1191;-43
2022/05/04 12:10:16;;;;;;;;;;;26.50;38.50;;;;;;5070275;28;1399;-42
2022/05/04 12:12:44;;;;;;;;;;;26.60;38.50;;;;;;5064775;28;1248;-42
2022/05/04 12:15:11;;;;;;;;;;;26.60;38.50;;;;;;5064863;28;1025;-43
2022/05/04 12:17:38;;;;;;;;;;;26.60;38.60;;;;;;5066003;28;861;-42
2022/05/04 12:20:05;;;;;;;;;;;26.60;38.50;;;;;;5064682;28;977;-42
2022/05/04 12:22:32;;;;;;;;;;;26.60;38.40;;;;;;5066750;28;1977;-42
2022/05/04 12:24:59;;;;;;;;;;;26.60;38.40;;;;;;5066333;28;1122;-43
2022/05/04 12:27:26;;;;;;;;;;;26.60;38.50;;;;;;5064722;28;839;-43
2022/05/04 12:35:29;;;;;;;;;;;26.60;38.50;;;;;;5066750;28;884;-42
2022/05/04 12:37:56;;;;;;;;;;;26.60;38.50;;;;;;5063059;28;905;-42
2022/05/04 12:40:23;;;;;;;;;;;26.60;38.40;;;;;;5065160;28;1008;-40
2022/05/04 12:42:50;;;;;;;;;;;26.60;38.50;;;;;;5066431;28;1906;-43
2022/05/04 12:45:18;;;;;;;;;;;26.60;38.40;;;;;;5065698;28;925;-43
2022/05/04 12:47:45;;;;;;;;;;;26.70;38.50;;;;;;5064014;28;1093;-42
2022/05/04 12:50:12;;;;;;;;;;;26.70;38.50;;;;;;5064775;28;992;-42
2022/05/04 12:52:39;;;;;;;;;;;26.60;38.50;;;;;;5064678;28;846;-42
2022/05/04 12:55:06;;;;;;;;;;;26.70;38.50;;;;;;5064821;28;953;-40
2022/05/04 12:57:33;;;;;;;;;;;26.60;38.50;;;;;;5064478;28;1011;-42
2022/05/04 12:59:59;;;;;;;;;;;26.70;38.40;;;;;;5065156;28;1503;-42
2022/05/04 13:02:29;;;;;;;;;;;26.70;38.60;;;;;;5071682;28;1980;-42
2022/05/04 13:04:57;;;;;;;;;;;26.60;38.70;;;;;;5072232;28;1487;-41
2022/05/04 13:07:24;;;;;;;;;;;26.60;38.60;;;;;;5068140;28;1426;-39
2022/05/04 13:09:51;;;;;;;;;;;26.60;38.60;;;;;;5067591;28;1019;-41
2022/05/04 13:12:18;;;;;;;;;;;26.60;38.70;;;;;;5066409;28;853;-42
2022/05/04 13:14:44;;;;;;;;;;;26.70;38.10;;;;;;5066367;28;889;-42
2022/05/04 13:17:12;;;;;;;;;;;26.70;35.70;;;;;;5066540;28;1027;-42
2022/05/04 13:19:40;;;;;;;;;;;26.60;34.70;;;;;;5066233;28;867;-42
2022/05/04 13:22:07;;;;;;;;;;;26.60;34.90;;;;;;5065590;28;1917;-42
2022/05/04 13:24:33;;;;;;;;;;;26.50;33.30;;;;;;5067667;28;973;-42
2022/05/04 13:27:00;;;;;;;;;;;26.50;33.00;;;;;;5066810;28;1136;-43
2022/05/04 13:29:27;;;;;;;;;;;26.40;33.10;;;;;;5064969;28;980;-43
2022/05/04 13:31:54;;;;;;;;;;;26.40;32.00;;;;;;5065363;28;1019;-43
2022/05/04 13:34:20;;;;;;;;;;;26.30;31.50;;;;;;5066880;28;1289;-44
2022/05/04 13:36:49;;;;;;;;;;;26.30;31.40;;;;;;5068124;28;1753;-45
2022/05/04 13:39:16;;;;;;;;;;;26.30;32.60;;;;;;5067267;28;1075;-44
2022/05/04 13:41:45;;;;;;;;;;;26.20;31.40;;;;;;5067157;28;1047;-45
2022/05/04 13:44:11;;;;;;;;;;;26.20;30.00;;;;;;5067494;28;1926;-45
2022/05/04 13:46:38;;;;;;;;;;;26.20;30.20;;;;;;5066601;28;1034;-45
2022/05/04 13:49:05;;;;;;;;;;;26.20;30.50;;;;;;5065860;28;1055;-45
2022/05/04 13:54:18;;;;;;;;;;;26.10;29.20;;;;;;5067974;28;718;-45
2022/05/04 13:56:45;;;;;;;;;;;26.10;29.70;;;;;;5065996;28;1190;-44
2022/05/04 13:59:11;;;;;;;;;;;26.10;29.50;;;;;;5068061;28;961;-45
2022/05/04 14:01:38;;;;;;;;;;;26.10;29.30;;;;;;5066731;28;912;-45
2022/05/04 14:04:05;;;;;;;;;;;26.00;28.80;;;;;;5066124;28;1906;-45
2022/05/04 14:06:32;;;;;;;;;;;26.00;28.50;;;;;;5064560;28;964;-45
2022/05/04 14:08:59;;;;;;;;;;;26.00;28.70;;;;;;5065422;28;1580;-46
2022/05/04 14:11:27;;;;;;;;;;;26.00;29.20;;;;;;5067684;28;1005;-46
2022/05/04 14:15:01;;;;;;;;;;;26.00;28.20;;;;;;5065588;28;1449;-46
2022/05/04 14:16:41;;;;;;;;;;;26.00;28.50;;;;;;5066768;28;1132;-46
2022/05/04 14:19:08;;;;;;;;;;;26.00;28.80;;;;;;5066370;28;1966;-46
2022/05/04 14:21:36;;;;;;;;;;;26.00;29.00;;;;;;5067229;28;950;-45
2022/05/04 14:24:03;;;;;;;;;;;25.90;28.60;;;;;;5067323;28;1922;-46
2022/05/04 14:26:33;;;;;;;;;;;26.00;28.40;;;;;;5067537;28;971;-45
2022/05/04 14:29:00;;;;;;;;;;;25.80;28.50;;;;;;5063437;28;948;-46
2022/05/04 14:31:27;;;;;;;;;;;25.80;28.10;;;;;;5065759;28;1011;-45
2022/05/04 14:33:54;;;;;;;;;;;25.90;28.30;;;;;;5067187;28;1077;-46
2022/05/04 14:36:20;;;;;;;;;;;25.90;28.20;;;;;;5067271;28;1123;-46
2022/05/04 14:38:47;;;;;;;;;;;25.80;28.50;;;;;;5067410;28;972;-45
2022/05/04 14:41:14;;;;;;;;;;;25.80;28.60;;;;;;5064914;28;1777;-46
2022/05/04 14:43:42;;;;;;;;;;;25.80;28.60;;;;;;5066044;28;1901;-45
2022/05/04 14:46:09;;;;;;;;;;;25.70;28.40;;;;;;5069083;28;1213;-46
2022/05/04 14:48:36;;;;;;;;;;;25.80;28.50;;;;;;5069765;28;941;-43
2022/05/04 14:51:03;;;;;;;;;;;25.60;28.40;;;;;;5071140;28;1043;-44
2022/05/04 14:53:30;;;;;;;;;;;25.70;28.10;;;;;;5070742;28;925;-44
2022/05/04 14:55:57;;;;;;;;;;;25.70;28.50;;;;;;5069173;28;908;-44
2022/05/04 14:58:24;;;;;;;;;;;25.80;28.40;;;;;;5071141;28;996;-44
2022/05/04 15:00:53;;;;;;;;;;;25.80;28.60;;;;;;5070481;28;888;-44
2022/05/04 15:06:06;;;;;;;;;;;25.70;28.60;;;;;;5069368;28;916;-46
2022/05/04 15:08:33;;;;;;;;;;;25.70;28.50;;;;;;5066897;28;959;-47
2022/05/04 15:11:00;;;;;;;;;;;25.70;28.50;;;;;;5069552;28;1001;-47
2022/05/04 15:13:28;;;;;;;;;;;25.70;28.20;;;;;;5061140;28;1024;-44
2022/05/04 15:16:06;;;;;;;;;;;25.60;28.20;;;;;;5039845;28;1043;-44
2022/05/04 15:18:35;;;;;;;;;;;25.60;28.20;;;;;;5034920;28;946;-44
2022/05/04 15:21:02;;;;;;;;;;;25.60;28.10;;;;;;5066504;28;884;-44
2022/05/04 15:23:29;;;;;;;;;;;25.70;28.10;;;;;;5066774;28;1914;-44
2022/05/04 15:25:56;;;;;;;;;;;25.70;28.10;;;;;;5065334;28;908;-44